Time;durP1;ratioP1;P1;durP2;ratioP2;P2;SDS_P1;SDS_P2;PMS_P1;PMS_P2;Temp;Humidity;BMP_temperature;BMP_pressure;BME280_temperature;BME280_humidity;BME280_pressure;Samples;Min_cycle;Max_cycle;Signal;HPM_P1;HPM_P2
2022/01/30 00:00:56;;;;;;;0.00;0.00;;;;;20.00;100435.00;;;;5084972;28;20047;-76
2022/01/30 00:03:25;;;;;;;;;;;;;20.00;100436.00;;;;5066209;28;20048;-75
2022/01/30 00:05:55;;;;;;;0.45;0.45;;;;;20.00;100432.00;;;;5079634;28;19924;-76
2022/01/30 00:08:24;;;;;;;0.00;0.00;;;;;20.10;100442.00;;;;5085357;28;20059;-76
2022/01/30 00:11:00;;;;;;;0.00;0.00;;;;;20.10;100425.00;;;;5086156;28;20066;-76
2022/01/30 00:13:30;;;;;;;1.65;0.08;;;;;20.10;100426.00;;;;5085132;28;20040;-75
2022/01/30 00:16:04;;;;;;;0.00;0.00;;;;;20.00;100435.00;;;;5084706;28;20050;-75
2022/01/30 00:19:03;;;;;;;0.00;0.00;;;;;20.00;100440.00;;;;5082809;28;20043;-75
2022/01/30 00:26:30;;;;;;;0.00;0.00;;;;;20.10;100446.00;;;;5084572;28;20110;-75
2022/01/30 00:29:01;;;;;;;0.22;0.10;;;;;20.10;100454.00;;;;5085169;28;20418;-75
2022/01/30 00:31:31;;;;;;;0.00;0.00;;;;;20.10;100463.00;;;;5084185;28;20040;-76
2022/01/30 00:34:21;;;;;;;0.00;0.00;;;;;20.10;100450.00;;;;5084081;28;20047;-75
2022/01/30 00:36:51;;;;;;;0.00;0.00;;;;;20.00;100475.00;;;;5083683;28;20070;-75
2022/01/30 00:39:20;;;;;;;0.00;0.00;;;;;20.00;100456.00;;;;5085653;28;20067;-75
2022/01/30 00:41:50;;;;;;;0.00;0.00;;;;;20.10;100480.00;;;;5085393;28;20039;-74
2022/01/30 00:44:20;;;;;;;0.00;0.00;;;;;20.10;100457.00;;;;5087401;28;20590;-75
2022/01/30 00:46:50;;;;;;;0.00;0.00;;;;;20.00;100454.00;;;;5089440;28;20044;-76
2022/01/30 00:49:19;;;;;;;0.00;0.00;;;;;19.80;100460.00;;;;5087366;28;20059;-76
2022/01/30 00:51:49;;;;;;;0.00;0.00;;;;;19.80;100463.00;;;;5087597;28;20040;-77
2022/01/30 00:54:18;;;;;;;0.00;0.00;;;;;19.80;100456.00;;;;5088049;28;20050;-77
2022/01/30 00:56:48;;;;;;;0.00;0.00;;;;;19.80;100469.00;;;;5087523;28;20055;-77
2022/01/30 00:59:18;;;;;;;0.10;0.10;;;;;19.70;100474.00;;;;5088587;28;20475;-77
2022/01/30 01:01:47;;;;;;;0.00;0.00;;;;;19.60;100460.00;;;;5088345;28;20437;-75
2022/01/30 01:04:19;;;;;;;0.00;0.00;;;;;19.60;100479.00;;;;5088227;28;20072;-76
2022/01/30 01:06:50;;;;;;;0.00;0.00;;;;;19.70;100470.00;;;;5087192;28;20040;-76
2022/01/30 01:09:25;;;;;;;0.00;0.00;;;;;19.80;100463.00;;;;5086967;28;20060;-76
2022/01/30 01:12:29;;;;;;;0.00;0.00;;;;;19.70;100479.00;;;;5087649;28;20093;-75
2022/01/30 01:23:33;;;;;;;0.00;0.00;;;;;19.50;100469.00;;;;5088389;28;20048;-76
2022/01/30 01:26:03;;;;;;;0.00;0.00;;;;;19.70;100480.00;;;;5087155;28;20093;-76
2022/01/30 01:28:32;;;;;;;0.00;0.00;;;;;19.50;100475.00;;;;5088997;28;20142;-76
2022/01/30 01:31:03;;;;;;;0.00;0.00;;;;;19.40;100482.00;;;;5088265;28;20048;-76
2022/01/30 01:36:26;;;;;;;0.00;0.00;;;;;19.30;100466.00;;;;5050462;28;20044;-76
2022/01/30 01:38:56;;;;;;;0.00;0.00;;;;;19.30;100470.00;;;;5087719;28;20046;-76
2022/01/30 01:41:29;;;;;;;0.00;0.00;;;;;19.20;100474.00;;;;5087026;28;20056;-76
2022/01/30 01:43:59;;;;;;;0.00;0.00;;;;;19.10;100482.00;;;;5087474;28;20040;-75
2022/01/30 01:46:33;;;;;;;0.00;0.00;;;;;19.10;100475.00;;;;5086744;28;20048;-76
2022/01/30 01:49:04;;;;;;;0.00;0.00;;;;;19.30;100475.00;;;;5086900;28;20060;-76
2022/01/30 01:51:35;;;;;;;0.00;0.00;;;;;19.30;100459.00;;;;5088143;28;20043;-76
2022/01/30 01:54:05;;;;;;;0.00;0.00;;;;;19.30;100460.00;;;;5085807;28;20139;-76
2022/01/30 01:56:34;;;;;;;0.00;0.00;;;;;19.40;100465.00;;;;5088207;28;20090;-78
2022/01/30 01:59:07;;;;;;;0.00;0.00;;;;;19.40;100468.00;;;;5085718;28;20051;-76
2022/01/30 02:01:58;;;;;;;0.00;0.00;;;;;19.30;100462.00;;;;5087216;28;20415;-76
2022/01/30 02:04:28;;;;;;;0.00;0.00;;;;;19.20;100454.00;;;;5088567;28;20040;-75
2022/01/30 02:07:17;;;;;;;0.00;0.00;;;;;19.20;100462.00;;;;5086589;28;20144;-76
2022/01/30 02:09:48;;;;;;;0.00;0.00;;;;;19.10;100454.00;;;;5086356;28;20056;-75
2022/01/30 02:12:24;;;;;;;0.00;0.00;;;;;19.10;100453.00;;;;5086932;28;20376;-75
2022/01/30 02:15:13;;;;;;;0.00;0.00;;;;;19.20;100455.00;;;;5086069;28;20043;-76
2022/01/30 02:26:07;;;;;;;0.00;0.00;;;;;19.40;100475.00;;;;5086218;28;20044;-76
2022/01/30 02:28:38;;;;;;;0.00;0.00;;;;;19.30;100461.00;;;;5086411;28;20545;-76
2022/01/30 02:31:12;;;;;;;0.00;0.00;;;;;19.20;100476.00;;;;5086703;28;20386;-76
2022/01/30 02:33:43;;;;;;;0.00;0.00;;;;;19.20;100465.00;;;;5086075;28;20051;-76
2022/01/30 02:36:12;;;;;;;0.00;0.00;;;;;19.20;100465.00;;;;5086807;28;20117;-76
2022/01/30 02:38:42;;;;;;;0.00;0.00;;;;;19.20;100462.00;;;;5087628;28;20479;-76
2022/01/30 02:41:11;;;;;;;0.00;0.00;;;;;19.10;100467.00;;;;5085869;28;20084;-76
2022/01/30 02:44:04;;;;;;;0.00;0.00;;;;;19.10;100456.00;;;;5084854;28;20055;-76
2022/01/30 02:46:38;;;;;;;0.40;0.35;;;;;19.20;100462.00;;;;5085847;28;20485;-76
2022/01/30 02:49:25;;;;;;;0.00;0.00;;;;;19.20;100466.00;;;;5086214;28;20052;-76
2022/01/30 02:52:02;;;;;;;0.00;0.00;;;;;19.10;100451.00;;;;5087703;28;20093;-76
2022/01/30 02:54:32;;;;;;;0.00;0.00;;;;;19.10;100450.00;;;;5085607;28;20044;-75
2022/01/30 02:57:02;;;;;;;0.00;0.00;;;;;19.00;100455.00;;;;5085608;28;20048;-76
2022/01/30 02:59:32;;;;;;;0.00;0.00;;;;;19.00;100449.00;;;;5085957;28;20044;-75
2022/01/30 03:02:02;;;;;;;0.00;0.00;;;;;19.00;100436.00;;;;5085379;28;20270;-76
2022/01/30 03:04:32;;;;;;;0.00;0.00;;;;;19.00;100457.00;;;;5086599;28;20044;-76
2022/01/30 03:07:02;;;;;;;0.20;0.20;;;;;19.00;100441.00;;;;5086492;28;20101;-75
2022/01/30 03:09:54;;;;;;;0.00;0.00;;;;;18.80;100431.00;;;;5085611;28;20052;-76
2022/01/30 03:12:24;;;;;;;0.00;0.00;;;;;18.80;100448.00;;;;5085410;28;20052;-76
2022/01/30 03:14:53;;;;;;;0.00;0.00;;;;;18.70;100439.00;;;;5085147;28;20079;-76
2022/01/30 03:17:23;;;;;;;0.00;0.00;;;;;18.70;100433.00;;;;5085425;28;20065;-75
2022/01/30 03:19:52;;;;;;;0.20;0.20;;;;;18.80;100426.00;;;;5084964;28;20145;-75
2022/01/30 03:22:23;;;;;;;0.00;0.00;;;;;18.80;100434.00;;;;5085025;28;20059;-75
2022/01/30 03:24:54;;;;;;;0.00;0.00;;;;;18.80;100420.00;;;;5085049;28;20580;-75
2022/01/30 03:27:51;;;;;;;0.00;0.00;;;;;18.80;100418.00;;;;5084993;28;20051;-75
2022/01/30 03:30:29;;;;;;;0.00;0.00;;;;;18.70;100422.00;;;;5084999;28;20552;-75
2022/01/30 03:33:19;;;;;;;0.00;0.00;;;;;18.60;100408.00;;;;5085815;28;20051;-75
2022/01/30 03:35:49;;;;;;;0.00;0.00;;;;;18.60;100421.00;;;;5085346;28;20040;-76
2022/01/30 03:38:20;;;;;;;0.00;0.00;;;;;18.70;100427.00;;;;5085891;28;20066;-75
2022/01/30 03:40:50;;;;;;;0.00;0.00;;;;;18.60;100425.00;;;;5085872;28;20102;-74
2022/01/30 03:43:20;;;;;;;0.00;0.00;;;;;18.40;100414.00;;;;5086885;28;20127;-75
2022/01/30 03:45:50;;;;;;;0.00;0.00;;;;;18.30;100421.00;;;;5084549;28;20101;-75
2022/01/30 03:48:20;;;;;;;0.00;0.00;;;;;18.30;100412.00;;;;5084921;28;20629;-75
2022/01/30 03:51:08;;;;;;;0.00;0.00;;;;;18.20;100402.00;;;;5086503;28;20056;-76
2022/01/30 03:53:38;;;;;;;0.00;0.00;;;;;18.20;100415.00;;;;5084833;28;20143;-75
2022/01/30 03:56:09;;;;;;;0.00;0.00;;;;;18.30;100402.00;;;;5084785;28;20143;-75
2022/01/30 03:58:39;;;;;;;0.00;0.00;;;;;18.20;100407.00;;;;5084670;28;20094;-75
2022/01/30 04:01:12;;;;;;;0.00;0.00;;;;;18.30;100406.00;;;;5085651;28;20419;-76
2022/01/30 04:03:42;;;;;;;0.00;0.00;;;;;18.40;100387.00;;;;5085261;28;20503;-75
2022/01/30 04:06:12;;;;;;;0.00;0.00;;;;;18.40;100395.00;;;;5086298;28;20384;-76
2022/01/30 04:08:43;;;;;;;0.00;0.00;;;;;18.40;100386.00;;;;5084702;28;20532;-75
2022/01/30 04:11:35;;;;;;;0.00;0.00;;;;;18.50;100386.00;;;;5084898;28;20079;-74
2022/01/30 04:14:37;;;;;;;0.00;0.00;;;;;18.50;100403.00;;;;5062608;28;20185;-75
2022/01/30 04:17:22;;;;;;;0.00;0.00;;;;;18.60;100394.00;;;;5085542;28;20051;-75
2022/01/30 04:20:09;;;;;;;0.00;0.00;;;;;18.60;100387.00;;;;5088386;28;20127;-75
2022/01/30 04:23:03;;;;;;;0.03;0.03;;;;;18.40;100374.00;;;;5088532;28;20051;-74
2022/01/30 04:25:56;;;;;;;0.00;0.00;;;;;18.50;100395.00;;;;5081987;28;20149;-75
2022/01/30 04:28:49;;;;;;;0.00;0.00;;;;;18.50;100365.00;;;;5078796;28;20088;-75
2022/01/30 04:31:37;;;;;;;0.00;0.00;;;;;18.50;100372.00;;;;5090065;28;20055;-75
2022/01/30 04:34:21;;;;;;;0.00;0.00;;;;;18.60;100385.00;;;;5088116;28;20071;-75
2022/01/30 04:37:27;;;;;;;0.00;0.00;;;;;18.50;100386.00;;;;5089611;28;20050;-75
2022/01/30 04:40:39;;;;;;;0.00;0.00;;;;;18.50;100385.00;;;;5089604;28;20059;-75
2022/01/30 05:07:32;;;;;;;0.00;0.00;;;;;18.80;100356.00;;;;5089164;28;20063;-75
2022/01/30 05:10:20;;;;;;;0.00;0.00;;;;;18.80;100347.00;;;;5089277;28;20403;-75
2022/01/30 05:13:13;;;;;;;0.00;0.00;;;;;18.80;100340.00;;;;5089322;28;20059;-76
2022/01/30 05:16:02;;;;;;;0.00;0.00;;;;;18.90;100331.00;;;;5089069;28;20529;-76
2022/01/30 05:18:41;;;;;;;0.00;0.00;;;;;19.00;100343.00;;;;5087742;28;20051;-76
2022/01/30 05:21:32;;;;;;;0.00;0.00;;;;;19.00;100323.00;;;;5088733;28;20127;-76
2022/01/30 05:24:20;;;;;;;0.00;0.00;;;;;19.10;100319.00;;;;5088678;28;20036;-76
2022/01/30 05:27:05;;;;;;;0.00;0.00;;;;;19.10;100322.00;;;;5087277;28;20052;-76
2022/01/30 05:29:57;;;;;;;0.00;0.00;;;;;19.10;100341.00;;;;5080209;28;20056;-76
2022/01/30 05:33:03;;;;;;;0.00;0.00;;;;;19.20;100316.00;;;;5045327;28;20492;-76
2022/01/30 05:35:53;;;;;;;0.00;0.00;;;;;19.20;100309.00;;;;5086025;28;20477;-76
2022/01/30 05:38:41;;;;;;;0.00;0.00;;;;;19.40;100322.00;;;;5088812;28;20108;-76
2022/01/30 05:41:29;;;;;;;0.00;0.00;;;;;19.40;100314.00;;;;5088601;28;20427;-76
2022/01/30 05:44:21;;;;;;;0.00;0.00;;;;;19.50;100302.00;;;;5088286;28;20125;-76
2022/01/30 05:47:01;;;;;;;0.00;0.00;;;;;19.40;100304.00;;;;5087062;28;20093;-76
2022/01/30 05:49:49;;;;;;;0.00;0.00;;;;;19.60;100294.00;;;;5087303;28;20066;-76
2022/01/30 05:52:41;;;;;;;0.00;0.00;;;;;19.60;100300.00;;;;5087971;28;20689;-76
2022/01/30 05:55:17;;;;;;;0.00;0.00;;;;;19.60;100288.00;;;;5086308;28;20059;-77
2022/01/30 05:57:47;;;;;;;0.00;0.00;;;;;19.60;100298.00;;;;5087361;28;20056;-75
2022/01/30 06:00:21;;;;;;;0.00;0.00;;;;;19.60;100281.00;;;;5087579;28;20048;-76
2022/01/30 06:02:55;;;;;;;0.00;0.00;;;;;19.70;100292.00;;;;5087520;28;20048;-76
2022/01/30 06:05:26;;;;;;;0.00;0.00;;;;;19.60;100288.00;;;;5086677;28;20594;-74
2022/01/30 06:07:57;;;;;;;0.00;0.00;;;;;19.70;100293.00;;;;5086337;28;20056;-76
2022/01/30 06:10:28;;;;;;;0.00;0.00;;;;;19.70;100291.00;;;;5086946;28;20059;-76
2022/01/30 06:12:57;;;;;;;0.00;0.00;;;;;19.70;100286.00;;;;5086682;28;20434;-76
2022/01/30 06:15:27;;;;;;;0.00;0.00;;;;;19.70;100280.00;;;;5086346;28;20518;-76
2022/01/30 06:18:05;;;;;;;0.00;0.00;;;;;19.70;100284.00;;;;5086190;28;20111;-76
2022/01/30 06:20:54;;;;;;;0.00;0.00;;;;;19.70;100276.00;;;;5087869;28;20557;-76
2022/01/30 06:23:42;;;;;;;0.00;0.00;;;;;19.80;100273.00;;;;5087704;28;20109;-76
2022/01/30 06:26:30;;;;;;;0.00;0.00;;;;;19.80;100276.00;;;;5087870;28;20055;-76
2022/01/30 06:29:17;;;;;;;0.00;0.00;;;;;19.70;100278.00;;;;5087761;28;20043;-76
2022/01/30 06:32:23;;;;;;;0.00;0.00;;;;;19.70;100269.00;;;;5004979;28;20133;-76
2022/01/30 06:35:11;;;;;;;0.00;0.00;;;;;19.70;100276.00;;;;5081877;28;20090;-76
2022/01/30 06:38:11;;;;;;;0.00;0.00;;;;;19.70;100265.00;;;;5085725;28;20048;-76
2022/01/30 06:41:11;;;;;;;0.00;0.00;;;;;19.70;100273.00;;;;5031415;28;20049;-75
2022/01/30 06:44:09;;;;;;;1.25;0.47;;;;;19.70;100269.00;;;;5068763;28;20048;-77
2022/01/30 06:46:57;;;;;;;0.00;0.00;;;;;19.80;100257.00;;;;5086876;28;20632;-76
2022/01/30 06:49:45;;;;;;;0.00;0.00;;;;;19.90;100268.00;;;;5087354;28;20062;-76
2022/01/30 06:52:30;;;;;;;0.00;0.00;;;;;19.90;100255.00;;;;5085957;28;20438;-76
2022/01/30 06:55:17;;;;;;;0.00;0.00;;;;;19.80;100268.00;;;;5086936;28;20067;-77
2022/01/30 06:58:13;;;;;;;0.00;0.00;;;;;19.80;100259.00;;;;5078281;28;20059;-76
2022/01/30 07:01:04;;;;;;;0.00;0.00;;;;;19.90;100266.00;;;;5086935;28;20214;-76
2022/01/30 07:03:54;;;;;;;0.00;0.00;;;;;19.80;100276.00;;;;5075549;28;20534;-76
2022/01/30 07:06:32;;;;;;;0.00;0.00;;;;;19.90;100267.00;;;;5084862;28;20404;-76
2022/01/30 07:09:02;;;;;;;0.00;0.00;;;;;19.90;100263.00;;;;5086935;28;20048;-76
2022/01/30 07:11:31;;;;;;;0.00;0.00;;;;;19.90;100273.00;;;;5086794;28;20040;-75
2022/01/30 07:14:01;;;;;;;0.00;0.00;;;;;20.00;100269.00;;;;5085761;28;20446;-76
2022/01/30 07:16:31;;;;;;;0.00;0.00;;;;;19.90;100269.00;;;;5086367;28;20040;-75
2022/01/30 07:19:00;;;;;;;0.00;0.00;;;;;19.90;100262.00;;;;5086547;28;20414;-76
2022/01/30 07:21:29;;;;;;;0.00;0.00;;;;;19.90;100278.00;;;;5086490;28;20126;-76
2022/01/30 07:23:59;;;;;;;0.00;0.00;;;;;19.80;100275.00;;;;5086567;28;20089;-76
2022/01/30 07:26:28;;;;;;;0.00;0.00;;;;;19.80;100273.00;;;;5086269;28;20035;-76
2022/01/30 07:28:59;;;;;;;0.00;0.00;;;;;19.80;100268.00;;;;5086714;28;20068;-76
2022/01/30 07:31:28;;;;;;;0.00;0.00;;;;;19.80;100276.00;;;;5087046;28;20399;-75
2022/01/30 07:33:57;;;;;;;0.00;0.00;;;;;19.80;100266.00;;;;5087153;28;20056;-75
2022/01/30 07:36:28;;;;;;;0.00;0.00;;;;;19.70;100282.00;;;;5085369;28;20059;-76
2022/01/30 07:38:57;;;;;;;0.00;0.00;;;;;19.80;100273.00;;;;5087200;28;20059;-76
2022/01/30 07:41:27;;;;;;;0.00;0.00;;;;;19.80;100274.00;;;;5086836;28;20278;-75
2022/01/30 07:43:57;;;;;;;0.00;0.00;;;;;19.80;100271.00;;;;5086358;28;20048;-76
2022/01/30 07:46:29;;;;;;;0.00;0.00;;;;;19.80;100268.00;;;;5085864;28;20082;-76
2022/01/30 07:48:59;;;;;;;0.00;0.00;;;;;19.80;100266.00;;;;5086605;28;20053;-76
2022/01/30 07:51:28;;;;;;;0.00;0.00;;;;;19.70;100265.00;;;;5085407;28;20105;-76
2022/01/30 07:53:59;;;;;;;0.00;0.00;;;;;19.80;100265.00;;;;5090174;28;20097;-76
2022/01/30 07:56:28;;;;;;;0.00;0.00;;;;;19.80;100269.00;;;;5090527;28;20048;-76
2022/01/30 07:58:58;;;;;;;0.00;0.00;;;;;19.80;100265.00;;;;5088995;28;20523;-76
2022/01/30 08:01:27;;;;;;;0.00;0.00;;;;;19.80;100272.00;;;;5090325;28;20048;-76
2022/01/30 08:03:58;;;;;;;0.00;0.00;;;;;19.80;100279.00;;;;5090120;28;20527;-76
2022/01/30 08:06:28;;;;;;;0.00;0.00;;;;;19.80;100272.00;;;;5090046;28;20529;-76
2022/01/30 08:08:57;;;;;;;0.00;0.00;;;;;19.80;100282.00;;;;5090201;28;20560;-76
2022/01/30 08:11:27;;;;;;;0.00;0.00;;;;;19.80;100292.00;;;;5089855;28;20050;-77
2022/01/30 08:13:56;;;;;;;0.00;0.00;;;;;19.80;100292.00;;;;5089935;28;20047;-76
2022/01/30 08:16:27;;;;;;;0.00;0.00;;;;;19.80;100284.00;;;;5089692;28;20082;-76
2022/01/30 08:18:57;;;;;;;0.00;0.00;;;;;19.80;100288.00;;;;5090328;28;20059;-76
2022/01/30 08:21:26;;;;;;;0.00;0.00;;;;;19.80;100294.00;;;;5089714;28;20047;-76
2022/01/30 08:23:56;;;;;;;0.00;0.00;;;;;19.80;100299.00;;;;5090849;28;20074;-76
2022/01/30 08:26:25;;;;;;;0.00;0.00;;;;;19.70;100287.00;;;;5091190;28;20039;-77
2022/01/30 08:28:55;;;;;;;0.00;0.00;;;;;19.70;100284.00;;;;5088336;28;20052;-73
2022/01/30 08:31:24;;;;;;;0.00;0.00;;;;;19.70;100291.00;;;;5089720;28;20036;-74
2022/01/30 08:33:55;;;;;;;0.00;0.00;;;;;19.60;100304.00;;;;5088515;28;20040;-74
2022/01/30 08:36:24;;;;;;;0.00;0.00;;;;;19.60;100304.00;;;;5089893;28;20109;-74
2022/01/30 08:38:54;;;;;;;0.00;0.00;;;;;19.60;100288.00;;;;5089649;28;20048;-74
2022/01/30 08:41:23;;;;;;;0.00;0.00;;;;;19.50;100303.00;;;;5089541;28;20048;-74
2022/01/30 08:43:52;;;;;;;0.00;0.00;;;;;19.40;100298.00;;;;5088927;28;20044;-73
2022/01/30 08:46:22;;;;;;;0.00;0.00;;;;;19.30;100292.00;;;;5089927;28;20435;-73
2022/01/30 08:48:51;;;;;;;0.00;0.00;;;;;19.20;100297.00;;;;5089527;28;20435;-74
2022/01/30 08:51:22;;;;;;;0.00;0.00;;;;;19.20;100313.00;;;;5090491;28;20521;-74
2022/01/30 08:53:51;;;;;;;;;;;;;19.20;100306.00;;;;5090060;28;20089;-75
2022/01/30 08:56:24;;;;;;;0.00;0.00;;;;;19.20;100300.00;;;;5089966;28;19924;-75
2022/01/30 08:58:54;;;;;;;0.00;0.00;;;;;19.20;100307.00;;;;5089195;28;20044;-74
2022/01/30 09:01:24;;;;;;;0.00;0.00;;;;;19.20;100320.00;;;;5089519;28;20044;-74
2022/01/30 09:03:53;;;;;;;0.00;0.00;;;;;19.20;100316.00;;;;5089005;28;20036;-75
2022/01/30 09:06:23;;;;;;;0.00;0.00;;;;;19.10;100309.00;;;;5089248;28;20040;-76
2022/01/30 09:08:52;;;;;;;0.00;0.00;;;;;19.20;100318.00;;;;5088614;28;20974;-74
2022/01/30 09:11:21;;;;;;;0.00;0.00;;;;;19.10;100331.00;;;;5087290;28;20059;-75
2022/01/30 09:13:51;;;;;;;0.00;0.00;;;;;19.20;100332.00;;;;5089528;28;20048;-74
2022/01/30 09:16:20;;;;;;;0.00;0.00;;;;;19.20;100322.00;;;;5089282;28;20051;-75
2022/01/30 09:18:49;;;;;;;0.00;0.00;;;;;19.20;100310.00;;;;5088277;28;20048;-76
2022/01/30 09:21:21;;;;;;;0.00;0.00;;;;;19.20;100311.00;;;;5088741;28;20052;-75
2022/01/30 09:23:50;;;;;;;0.00;0.00;;;;;19.30;100318.00;;;;5088344;28;20133;-75
2022/01/30 09:26:20;;;;;;;0.00;0.00;;;;;19.50;100322.00;;;;5088599;28;20044;-74
2022/01/30 09:28:49;;;;;;;0.00;0.00;;;;;19.60;100324.00;;;;5088452;28;20066;-76
2022/01/30 09:31:19;;;;;;;0.00;0.00;;;;;19.70;100340.00;;;;5089056;28;20052;-75
2022/01/30 09:33:48;;;;;;;0.00;0.00;;;;;19.80;100333.00;;;;5089072;28;20040;-75
2022/01/30 09:36:18;;;;;;;0.00;0.00;;;;;19.90;100332.00;;;;5088365;28;20068;-76
2022/01/30 09:38:50;;;;;;;0.00;0.00;;;;;20.00;100336.00;;;;5089689;28;20142;-76
2022/01/30 09:41:22;;;;;;;0.00;0.00;;;;;20.20;100339.00;;;;5088579;28;20098;-75
2022/01/30 09:43:51;;;;;;;0.00;0.00;;;;;20.30;100346.00;;;;5088486;28;20594;-75
2022/01/30 09:46:22;;;;;;;;;;;;;20.40;100341.00;;;;5071717;28;20184;-76
2022/01/30 09:48:52;;;;;;;0.00;0.00;;;;;20.60;100335.00;;;;5087862;28;19946;-76
2022/01/30 09:51:21;;;;;;;0.00;0.00;;;;;20.70;100346.00;;;;5089107;28;20043;-76
2022/01/30 09:53:51;;;;;;;0.00;0.00;;;;;20.80;100343.00;;;;5088337;28;20115;-75
2022/01/30 09:56:20;;;;;;;0.00;0.00;;;;;20.80;100336.00;;;;5087328;28;20097;-76
2022/01/30 09:58:50;;;;;;;0.00;0.00;;;;;20.90;100347.00;;;;5088278;28;20515;-75
2022/01/30 10:01:20;;;;;;;0.00;0.00;;;;;21.10;100315.00;;;;5086629;28;20040;-75
2022/01/30 10:03:49;;;;;;;0.00;0.00;;;;;21.20;100330.00;;;;5088569;28;20044;-75
2022/01/30 10:06:22;;;;;;;0.00;0.00;;;;;21.50;100321.00;;;;5088335;28;20499;-76
2022/01/30 10:08:56;;;;;;;0.00;0.00;;;;;21.60;100322.00;;;;5088253;28;20060;-74
2022/01/30 10:11:49;;;;;;;0.00;0.00;;;;;21.70;100336.00;;;;5088157;28;20487;-76
2022/01/30 10:14:20;;;;;;;0.00;0.00;;;;;21.60;100343.00;;;;5087741;28;20036;-75
2022/01/30 10:17:09;;;;;;;0.00;0.00;;;;;21.90;100337.00;;;;5087363;28;20143;-76
2022/01/30 10:19:38;;;;;;;0.00;0.00;;;;;22.20;100311.00;;;;5088195;28;20040;-76
2022/01/30 10:22:09;;;;;;;0.00;0.00;;;;;22.50;100337.00;;;;5087405;28;20082;-76
2022/01/30 10:24:43;;;;;;;0.00;0.00;;;;;22.60;100324.00;;;;5087713;28;20074;-76
2022/01/30 10:27:24;;;;;;;0.00;0.00;;;;;22.90;100317.00;;;;5087741;28;20051;-76
2022/01/30 10:30:06;;;;;;;0.00;0.00;;;;;23.20;100307.00;;;;5087813;28;20044;-76
2022/01/30 10:32:36;;;;;;;0.00;0.00;;;;;23.40;100322.00;;;;5087463;28;20043;-76
2022/01/30 10:35:10;;;;;;;0.00;0.00;;;;;23.80;100313.00;;;;5086130;28;20056;-76
2022/01/30 10:37:40;;;;;;;0.00;0.00;;;;;24.20;100298.00;;;;5087075;28;20044;-77
2022/01/30 10:40:18;;;;;;;0.00;0.00;;;;;26.70;100308.00;;;;5087615;28;20538;-76
2022/01/30 10:42:52;;;;;;;0.00;0.00;;;;;24.60;100312.00;;;;5087266;28;20081;-75
2022/01/30 10:45:31;;;;;;;0.00;0.00;;;;;24.30;100338.00;;;;5087107;28;20476;-76
2022/01/30 10:48:24;;;;;;;0.00;0.00;;;;;24.10;100347.00;;;;5086198;28;20040;-76
2022/01/30 10:50:55;;;;;;;0.00;0.00;;;;;24.10;100342.00;;;;5086037;28;20088;-76
2022/01/30 10:53:26;;;;;;;0.00;0.00;;;;;24.20;100333.00;;;;5082910;28;20047;-76
2022/01/30 10:55:55;;;;;;;0.00;0.00;;;;;28.40;100159.00;;;;5083635;28;20059;-76
2022/01/30 10:58:25;;;;;;;0.00;0.00;;;;;29.70;100124.00;;;;5084241;28;20040;-76
2022/01/30 11:00:56;;;;;;;0.00;0.00;;;;;31.80;100187.00;;;;5085711;28;20055;-77
2022/01/30 11:03:55;;;;;;;0.00;0.00;;;;;34.40;100127.00;;;;5086285;28;20115;-77
2022/01/30 11:06:27;;;;;;;0.00;0.00;;;;;34.90;100227.00;;;;5086562;28;20105;-78
2022/01/30 11:09:27;;;;;;;0.00;0.00;;;;;34.00;100216.00;;;;5086442;28;20044;-77
2022/01/30 11:12:03;;;;;;;0.00;0.00;;;;;34.50;100147.00;;;;5086753;28;20044;-76
2022/01/30 11:15:16;;;;;;;0.00;0.00;;;;;30.60;100283.00;;;;5087563;28;20495;-78
2022/01/30 11:17:28;;;;;;;0.00;0.00;;;;;30.80;100302.00;;;;5086374;28;20446;-77
2022/01/30 11:19:58;;;;;;;0.20;0.05;;;;;31.40;100204.00;;;;5086561;28;20055;-77
2022/01/30 11:22:30;;;;;;;0.00;0.00;;;;;34.10;100159.00;;;;5086223;28;20123;-77
2022/01/30 11:25:09;;;;;;;0.00;0.00;;;;;35.20;100174.00;;;;5086559;28;20097;-77
2022/01/30 11:27:45;;;;;;;0.00;0.00;;;;;35.70;100180.00;;;;5086308;28;20044;-77
2022/01/30 11:30:29;;;;;;;0.00;0.00;;;;;35.90;100163.00;;;;5086229;28;20115;-76
2022/01/30 11:32:59;;;;;;;0.00;0.00;;;;;35.50;100172.00;;;;5085891;28;20044;-76
2022/01/30 11:35:29;;;;;;;0.00;0.00;;;;;35.50;100168.00;;;;5086502;28;20047;-77
2022/01/30 11:37:58;;;;;;;0.00;0.00;;;;;35.10;100143.00;;;;5087130;28;20407;-79
2022/01/30 11:40:28;;;;;;;0.00;0.00;;;;;35.00;100151.00;;;;5086746;28;20050;-79
2022/01/30 11:43:08;;;;;;;0.00;0.00;;;;;34.70;100156.00;;;;5086142;28;20059;-81
2022/01/30 11:45:38;;;;;;;0.00;0.00;;;;;35.10;100160.00;;;;5086128;28;20101;-77
2022/01/30 11:48:16;;;;;;;0.00;0.00;;;;;32.40;100234.00;;;;5086320;28;20032;-78
2022/01/30 11:50:46;;;;;;;0.00;0.00;;;;;31.30;100200.00;;;;5086648;28;20082;-78
2022/01/30 11:53:29;;;;;;;0.00;0.00;;;;;32.00;100170.00;;;;5086394;28;20036;-78
2022/01/30 11:56:04;;;;;;;0.00;0.00;;;;;33.10;100152.00;;;;5086348;28;20124;-77
2022/01/30 11:58:54;;;;;;;0.00;0.00;;;;;33.50;100160.00;;;;5086800;28;20044;-76
2022/01/30 12:01:27;;;;;;;0.00;0.00;;;;;33.10;100172.00;;;;5085628;28;20063;-77
2022/01/30 12:03:59;;;;;;;0.00;0.00;;;;;32.80;100185.00;;;;5084547;28;20119;-77
2022/01/30 12:06:47;;;;;;;0.00;0.00;;;;;32.60;100228.00;;;;5085162;28;20048;-76
2022/01/30 12:09:17;;;;;;;0.00;0.00;;;;;31.20;100293.00;;;;5085565;28;20079;-76
2022/01/30 12:11:49;;;;;;;0.00;0.00;;;;;29.90;100337.00;;;;5085667;28;20593;-77
2022/01/30 12:14:22;;;;;;;0.00;0.00;;;;;29.20;100310.00;;;;5086299;28;20047;-76
2022/01/30 12:16:56;;;;;;;0.00;0.00;;;;;28.50;100348.00;;;;5085117;28;20055;-73
2022/01/30 12:19:45;;;;;;;0.00;0.00;;;;;28.60;100345.00;;;;5068109;28;20040;-77
2022/01/30 12:22:23;;;;;;;0.00;0.00;;;;;28.10;100354.00;;;;5085787;28;20533;-76
2022/01/30 12:25:20;;;;;;;0.22;0.00;;;;;28.70;100304.00;;;;5086118;28;20075;-74
2022/01/30 12:27:55;;;;;;;0.00;0.00;;;;;29.00;100301.00;;;;5082684;28;20115;-76
2022/01/30 12:30:33;;;;;;;0.00;0.00;;;;;29.50;100319.00;;;;5085270;28;20041;-76
2022/01/30 12:33:24;;;;;;;0.00;0.00;;;;;29.60;100295.00;;;;5086363;28;20046;-75
2022/01/30 12:35:55;;;;;;;0.00;0.00;;;;;28.90;100319.00;;;;5076530;28;20131;-76
2022/01/30 12:38:34;;;;;;;0.00;0.00;;;;;29.00;100297.00;;;;5086351;28;20131;-75
2022/01/30 12:41:21;;;;;;;0.00;0.00;;;;;30.20;100301.00;;;;5089528;28;20071;-75
2022/01/30 12:43:56;;;;;;;0.00;0.00;;;;;29.40;100304.00;;;;5088984;28;20503;-75
2022/01/30 12:46:30;;;;;;;0.00;0.00;;;;;28.80;100326.00;;;;5089669;28;20040;-77
2022/01/30 12:49:21;;;;;;;0.00;0.00;;;;;29.00;100307.00;;;;5089643;28;20036;-77
2022/01/30 12:51:52;;;;;;;;;;;;;30.30;100276.00;;;;5090318;28;20044;-77
2022/01/30 12:54:27;;;;;;;0.00;0.00;;;;;31.60;100307.00;;;;5089309;28;20454;-77
2022/01/30 12:56:57;;;;;;;8.75;0.35;;;;;31.20;100261.00;;;;5089216;28;20446;-78
2022/01/30 12:59:26;;;;;;;0.00;0.00;;;;;30.70;100260.00;;;;5088840;28;20465;-77
2022/01/30 13:02:10;;;;;;;0.00;0.00;;;;;30.80;100256.00;;;;5089519;28;20040;-76
2022/01/30 13:04:40;;;;;;;0.47;0.05;;;;;30.90;100266.00;;;;5088784;28;20047;-76
2022/01/30 13:07:13;;;;;;;0.00;0.00;;;;;31.00;100286.00;;;;5088589;28;20052;-78
2022/01/30 13:09:43;;;;;;;1.75;0.08;;;;;30.70;100296.00;;;;5089183;28;20567;-78
2022/01/30 13:12:15;;;;;;;1.85;0.65;;;;;30.50;100286.00;;;;5088952;28;20055;-78
2022/01/30 13:14:44;;;;;;;0.00;0.00;;;;;30.70;100287.00;;;;5090088;28;20438;-76
2022/01/30 13:17:14;;;;;;;0.10;0.10;;;;;30.20;100297.00;;;;5088939;28;20127;-78
2022/01/30 13:19:43;;;;;;;0.52;0.52;;;;;30.20;100271.00;;;;5088749;28;20404;-76
2022/01/30 13:22:33;;;;;;;0.15;0.10;;;;;31.40;100259.00;;;;5088977;28;20047;-77
2022/01/30 13:25:06;;;;;;;0.20;0.20;;;;;31.50;100292.00;;;;5089523;28;20590;-77
2022/01/30 13:27:41;;;;;;;0.00;0.00;;;;;31.30;100250.00;;;;5088337;28;20055;-77
2022/01/30 13:30:11;;;;;;;0.43;0.43;;;;;31.20;100276.00;;;;5089381;28;20048;-76
2022/01/30 13:32:41;;;;;;;0.00;0.00;;;;;31.60;100288.00;;;;5089031;28;20050;-75
2022/01/30 13:35:12;;;;;;;0.43;0.43;;;;;30.80;100291.00;;;;5088554;28;20098;-76
2022/01/30 13:37:43;;;;;;;0.00;0.00;;;;;31.00;100314.00;;;;5088902;28;20036;-76
2022/01/30 13:40:22;;;;;;;0.00;0.00;;;;;29.60;100320.00;;;;5088739;28;20040;-75